Time;durP1;ratioP1;P1;durP2;ratioP2;P2;SDS_P1;SDS_P2;PMS_P1;PMS_P2;Temp;Humidity;BMP_temperature;BMP_pressure;BME280_temperature;BME280_humidity;BME280_pressure;Samples;Min_cycle;Max_cycle;Signal;HPM_P1;HPM_P2
2023/08/12 00:01:05;;;;;;;18.08;6.00;;;19.80;99.90;;;;;;5053324;28;20448;-68
2023/08/12 00:03:31;;;;;;;18.20;5.60;;;19.90;99.90;;;;;;5053311;28;20029;-68
2023/08/12 00:06:00;;;;;;;14.50;5.45;;;19.90;99.90;;;;;;5053039;28;20455;-69
2023/08/12 00:08:26;;;;;;;16.33;5.40;;;19.80;99.90;;;;;;5052931;28;20039;-69
2023/08/12 00:10:51;;;;;;;11.30;4.85;;;19.90;99.90;;;;;;5052700;28;20104;-68
2023/08/12 00:13:17;;;;;;;18.17;5.05;;;19.80;99.90;;;;;;5052794;28;20025;-68
2023/08/12 00:15:44;;;;;;;15.23;5.55;;;19.90;99.90;;;;;;5053178;28;20105;-69
2023/08/12 00:18:09;;;;;;;18.23;5.07;;;19.80;99.90;;;;;;5052869;28;20033;-69
2023/08/12 00:20:35;;;;;;;10.38;4.40;;;19.80;99.90;;;;;;5052687;28;20028;-69
2023/08/12 00:23:01;;;;;;;13.13;5.28;;;19.80;99.90;;;;;;5051492;28;20078;-71
2023/08/12 00:25:26;;;;;;;14.48;4.80;;;19.80;99.90;;;;;;5052786;28;20111;-69
2023/08/12 00:27:52;;;;;;;14.27;4.88;;;19.80;99.90;;;;;;5052177;28;20025;-71
2023/08/12 00:30:18;;;;;;;13.82;5.15;;;19.80;99.90;;;;;;5052566;28;20025;-68
2023/08/12 00:32:43;;;;;;;17.30;4.78;;;19.80;99.90;;;;;;5052610;28;20461;-71
2023/08/12 00:35:09;;;;;;;12.50;4.63;;;19.80;99.90;;;;;;5052666;28;20025;-68
2023/08/12 00:37:34;;;;;;;18.13;5.32;;;19.80;99.90;;;;;;5051918;28;20059;-70
2023/08/12 00:40:00;;;;;;;13.70;4.57;;;19.70;99.90;;;;;;5051321;28;20040;-72
2023/08/12 00:42:26;;;;;;;12.07;4.30;;;19.70;99.90;;;;;;5051650;28;20028;-69
2023/08/12 00:44:51;;;;;;;13.73;5.18;;;19.80;99.90;;;;;;5052092;28;20092;-69
2023/08/12 00:47:17;;;;;;;10.50;5.38;;;19.80;99.90;;;;;;5051278;28;20039;-69
2023/08/12 00:49:45;;;;;;;14.63;5.10;;;19.80;99.90;;;;;;5052586;28;20060;-70
2023/08/12 00:52:15;;;;;;;14.85;4.35;;;19.80;99.90;;;;;;5052286;28;20441;-72
2023/08/12 00:54:41;;;;;;;15.57;5.15;;;19.80;99.90;;;;;;5052538;28;20029;-69
2023/08/12 00:57:07;;;;;;;12.73;4.90;;;19.80;99.90;;;;;;5051984;28;20028;-68
2023/08/12 00:59:36;;;;;;;11.98;5.28;;;19.90;99.90;;;;;;5051581;28;20044;-69
2023/08/12 01:02:02;;;;;;;14.48;4.45;;;19.80;99.90;;;;;;5051996;28;20028;-69
2023/08/12 01:04:28;;;;;;;12.60;4.43;;;19.90;99.90;;;;;;5052281;28;20086;-70
2023/08/12 01:06:53;;;;;;;10.98;4.35;;;19.90;99.90;;;;;;5050502;28;20465;-68
2023/08/12 01:09:19;;;;;;;13.85;4.70;;;19.90;99.90;;;;;;5050990;28;20159;-72
2023/08/12 01:11:55;;;;;;;13.88;5.43;;;19.90;99.90;;;;;;5052249;28;20048;-71
2023/08/12 01:14:31;;;;;;;13.45;4.72;;;19.90;99.90;;;;;;5051596;28;20028;-69
2023/08/12 01:17:03;;;;;;;11.40;4.32;;;19.90;99.90;;;;;;5052117;28;20167;-69
2023/08/12 01:19:36;;;;;;;13.07;4.65;;;19.90;99.90;;;;;;5051711;28;20037;-68
2023/08/12 01:22:03;;;;;;;14.18;5.22;;;19.90;99.90;;;;;;5051378;28;20036;-71
2023/08/12 01:24:39;;;;;;;13.02;4.53;;;19.90;99.90;;;;;;5051587;28;20029;-69
2023/08/12 01:27:06;;;;;;;15.95;4.95;;;19.90;99.90;;;;;;5051917;28;20029;-69
2023/08/12 01:29:35;;;;;;;12.73;4.95;;;20.00;99.90;;;;;;5051592;28;20025;-68
2023/08/12 01:32:03;;;;;;;14.27;5.70;;;19.90;99.90;;;;;;5051843;28;20025;-71
2023/08/12 01:34:44;;;;;;;12.38;4.95;;;20.00;99.90;;;;;;5051302;28;20025;-71
2023/08/12 01:37:14;;;;;;;16.05;5.03;;;19.90;99.90;;;;;;5050901;28;20056;-69
2023/08/12 01:39:41;;;;;;;13.50;4.95;;;19.90;99.90;;;;;;5050721;28;20090;-71
2023/08/12 01:42:06;;;;;;;12.38;4.97;;;19.90;99.90;;;;;;5055243;28;20053;-68
2023/08/12 01:44:32;;;;;;;16.40;5.15;;;19.80;99.90;;;;;;5056015;28;20512;-69
2023/08/12 01:46:59;;;;;;;16.00;5.47;;;19.80;99.90;;;;;;5054905;28;20025;-69
2023/08/12 01:49:25;;;;;;;11.15;4.93;;;19.80;99.90;;;;;;5055687;28;20029;-69
2023/08/12 01:51:50;;;;;;;12.95;4.85;;;19.80;99.90;;;;;;5055806;28;20429;-68
2023/08/12 01:54:16;;;;;;;14.32;5.65;;;19.80;99.90;;;;;;5055855;28;20025;-68
2023/08/12 01:56:41;;;;;;;14.13;5.68;;;19.80;99.90;;;;;;5055625;28;20029;-69
2023/08/12 01:59:07;;;;;;;13.13;5.20;;;19.80;99.90;;;;;;5055150;28;20135;-69
2023/08/12 02:01:33;;;;;;;13.15;6.03;;;19.80;99.90;;;;;;5049633;28;20036;-68
2023/08/12 02:03:58;;;;;;;17.92;6.25;;;19.90;99.90;;;;;;5055085;28;20040;-70
2023/08/12 02:06:24;;;;;;;12.93;5.95;;;19.90;99.90;;;;;;5055053;28;20116;-71
2023/08/12 02:08:50;;;;;;;16.27;6.70;;;19.90;99.90;;;;;;5055260;28;20031;-70
2023/08/12 02:11:16;;;;;;;15.90;6.13;;;19.90;99.90;;;;;;5053974;28;20419;-70
2023/08/12 02:13:41;;;;;;;16.73;6.28;;;19.90;99.90;;;;;;5054021;28;20116;-71
2023/08/12 02:16:07;;;;;;;14.15;5.85;;;20.00;99.90;;;;;;5064776;28;20032;-69
2023/08/12 02:18:32;;;;;;;16.40;6.43;;;20.00;99.90;;;;;;5073769;28;20047;-72
2023/08/12 02:20:58;;;;;;;15.98;6.30;;;20.00;99.90;;;;;;5073981;28;20048;-70
2023/08/12 02:23:24;;;;;;;15.10;5.90;;;20.00;99.90;;;;;;5075057;28;20388;-69
2023/08/12 02:25:51;;;;;;;14.73;5.88;;;20.10;99.90;;;;;;5074439;28;20028;-69
2023/08/12 02:28:17;;;;;;;13.02;5.78;;;20.10;99.90;;;;;;5074979;28;20025;-69
2023/08/12 02:30:43;;;;;;;16.30;7.40;;;20.10;99.90;;;;;;5059198;28;20555;-69
2023/08/12 02:33:08;;;;;;;16.35;6.47;;;20.10;99.90;;;;;;5053076;28;20024;-69
2023/08/12 02:35:34;;;;;;;15.80;6.30;;;20.10;99.90;;;;;;5054708;28;20075;-71
2023/08/12 02:37:59;;;;;;;14.85;7.78;;;20.20;99.90;;;;;;5054574;28;20049;-69
2023/08/12 02:40:25;;;;;;;13.65;6.47;;;20.20;99.90;;;;;;5054159;28;20035;-68
2023/08/12 02:42:50;;;;;;;15.55;6.40;;;20.20;99.90;;;;;;5054254;28;20105;-69
2023/08/12 02:45:16;;;;;;;15.38;5.97;;;20.20;99.90;;;;;;5053120;28;20458;-69
2023/08/12 02:47:41;;;;;;;14.95;6.25;;;20.20;99.90;;;;;;5054833;28;20044;-69
2023/08/12 02:50:08;;;;;;;16.20;6.78;;;20.20;99.90;;;;;;5054469;28;20052;-70
2023/08/12 02:52:33;;;;;;;19.83;7.53;;;20.20;99.90;;;;;;5053473;28;20068;-71
2023/08/12 02:54:59;;;;;;;14.52;6.75;;;20.20;99.90;;;;;;5054443;28;20063;-72
2023/08/12 02:57:24;;;;;;;20.58;7.00;;;20.10;99.90;;;;;;5054639;28;20025;-72
2023/08/12 02:59:50;;;;;;;20.33;9.18;;;20.10;99.90;;;;;;5054178;28;20397;-67
2023/08/12 03:02:16;;;;;;;16.65;7.00;;;20.10;99.90;;;;;;5054260;28;20032;-65
2023/08/12 03:04:41;;;;;;;16.23;7.60;;;20.10;99.90;;;;;;5054358;28;20413;-66
2023/08/12 03:07:07;;;;;;;21.15;8.38;;;19.90;99.90;;;;;;5056534;28;20086;-66
2023/08/12 03:09:33;;;;;;;20.52;8.88;;;19.80;99.90;;;;;;5062242;28;20424;-65
2023/08/12 03:12:01;;;;;;;21.23;8.80;;;19.70;99.90;;;;;;5062811;28;20033;-65
2023/08/12 03:14:29;;;;;;;24.35;10.05;;;19.70;99.90;;;;;;5068098;28;20024;-65
2023/08/12 03:16:55;;;;;;;22.27;10.30;;;19.60;99.90;;;;;;5057283;28;20178;-64
2023/08/12 03:19:21;;;;;;;21.80;10.05;;;19.60;99.90;;;;;;5067743;28;20124;-66
2023/08/12 03:21:46;;;;;;;24.67;10.48;;;19.60;99.90;;;;;;5063286;28;20032;-66
2023/08/12 03:24:12;;;;;;;26.25;11.65;;;19.50;99.90;;;;;;5060525;28;20036;-68
2023/08/12 03:26:37;;;;;;;23.98;11.75;;;19.40;99.90;;;;;;5070077;28;20070;-66
2023/08/12 03:29:03;;;;;;;27.60;13.50;;;19.40;99.90;;;;;;5057161;28;20032;-66
2023/08/12 03:31:29;;;;;;;27.30;13.07;;;19.40;99.90;;;;;;5066598;28;20545;-66
2023/08/12 03:33:54;;;;;;;26.42;12.90;;;19.40;99.90;;;;;;5064236;28;20025;-65
2023/08/12 03:36:20;;;;;;;26.48;13.68;;;19.40;99.90;;;;;;5059732;28;20465;-66
2023/08/12 03:38:46;;;;;;;29.75;13.77;;;19.30;99.90;;;;;;5069411;28;20051;-65
2023/08/12 03:41:11;;;;;;;29.17;13.52;;;19.30;99.90;;;;;;5058391;28;20063;-66
2023/08/12 03:43:37;;;;;;;27.60;13.50;;;19.30;99.90;;;;;;5065232;28;20050;-67
2023/08/12 03:46:03;;;;;;;28.40;14.55;;;19.30;99.90;;;;;;5056748;28;20385;-67
2023/08/12 03:48:28;;;;;;;32.33;17.30;;;19.20;99.90;;;;;;5056437;28;20116;-67
2023/08/12 03:50:54;;;;;;;30.88;15.82;;;19.30;99.90;;;;;;5070063;28;20112;-66
2023/08/12 03:53:19;;;;;;;33.50;16.25;;;19.30;99.90;;;;;;5059209;28;20490;-67
2023/08/12 03:55:45;;;;;;;30.08;16.90;;;19.30;99.90;;;;;;5063787;28;20029;-67
2023/08/12 03:58:11;;;;;;;30.52;17.83;;;19.30;99.90;;;;;;5066032;28;20032;-68
2023/08/12 04:00:41;;;;;;;31.88;16.77;;;19.30;99.90;;;;;;5056823;28;20542;-66
2023/08/12 04:03:08;;;;;;;34.65;18.85;;;19.40;99.90;;;;;;5041466;28;20017;-66
2023/08/12 04:05:34;;;;;;;39.53;18.45;;;19.40;99.90;;;;;;5049064;28;20499;-66
2023/08/12 04:07:59;;;;;;;34.08;18.55;;;19.40;99.90;;;;;;5061803;28;20029;-66
2023/08/12 04:10:25;;;;;;;34.45;18.33;;;19.40;99.90;;;;;;5066938;28;20024;-66
2023/08/12 04:12:51;;;;;;;35.92;18.45;;;19.50;99.90;;;;;;5056719;28;20070;-67
2023/08/12 04:15:16;;;;;;;34.47;18.17;;;19.50;99.90;;;;;;5067643;28;20032;-67
2023/08/12 04:17:42;;;;;;;32.53;18.50;;;19.50;99.90;;;;;;5062072;28;20034;-67
2023/08/12 04:20:08;;;;;;;40.35;19.52;;;19.50;99.90;;;;;;5063184;28;20031;-66
2023/08/12 04:22:34;;;;;;;37.95;19.73;;;19.50;99.90;;;;;;5053478;28;20465;-67
2023/08/12 04:25:00;;;;;;;36.83;19.77;;;19.50;99.90;;;;;;5069397;28;20033;-66
2023/08/12 04:27:26;;;;;;;37.90;20.67;;;19.60;99.90;;;;;;5059586;28;20027;-66
2023/08/12 04:29:51;;;;;;;41.20;20.75;;;19.60;99.90;;;;;;5062661;28;20033;-67
2023/08/12 04:32:17;;;;;;;41.17;20.88;;;19.70;99.90;;;;;;5066484;28;20028;-66
2023/08/12 04:34:44;;;;;;;41.15;21.42;;;19.70;99.90;;;;;;5056216;28;20036;-66
2023/08/12 04:37:10;;;;;;;39.90;22.15;;;19.70;99.90;;;;;;5067567;28;20049;-67
2023/08/12 04:39:35;;;;;;;40.20;22.17;;;19.80;99.90;;;;;;5060656;28;20102;-66
2023/08/12 04:42:01;;;;;;;38.95;22.15;;;19.80;99.90;;;;;;5060780;28;20029;-66
2023/08/12 04:44:26;;;;;;;39.65;20.48;;;19.80;99.90;;;;;;5066097;28;20111;-67
2023/08/12 04:46:52;;;;;;;41.90;22.17;;;19.90;99.90;;;;;;5055669;28;20107;-67
2023/08/12 04:49:17;;;;;;;43.67;22.15;;;19.90;99.90;;;;;;5067128;28;20101;-67
2023/08/12 04:51:43;;;;;;;40.60;22.45;;;19.90;99.90;;;;;;5061072;28;20024;-67
2023/08/12 04:54:08;;;;;;;44.10;23.35;;;19.90;99.90;;;;;;5059824;28;20032;-67
2023/08/12 04:56:34;;;;;;;38.47;21.73;;;19.90;99.90;;;;;;5068172;28;20506;-67
2023/08/12 04:58:59;;;;;;;38.38;21.63;;;19.90;99.90;;;;;;5055687;28;20429;-66
2023/08/12 05:01:25;;;;;;;44.10;21.65;;;19.90;99.90;;;;;;5065894;28;20055;-67
2023/08/12 05:03:50;;;;;;;38.63;22.25;;;19.90;99.90;;;;;;5062793;28;20064;-67
2023/08/12 05:06:16;;;;;;;39.58;21.27;;;20.00;99.90;;;;;;5058489;28;20057;-67
2023/08/12 05:08:41;;;;;;;41.70;20.65;;;20.00;99.90;;;;;;5068487;28;20059;-67
2023/08/12 05:11:07;;;;;;;37.00;19.60;;;20.00;99.90;;;;;;5056596;28;20020;-67
2023/08/12 05:13:33;;;;;;;36.65;19.73;;;20.00;99.90;;;;;;5059642;28;20460;-67
2023/08/12 05:15:58;;;;;;;35.00;19.17;;;20.10;99.90;;;;;;5063269;28;20071;-67
2023/08/12 05:18:24;;;;;;;33.80;19.90;;;20.10;99.90;;;;;;5055895;28;20036;-67
2023/08/12 05:20:52;;;;;;;36.28;18.35;;;20.20;99.90;;;;;;5068480;28;20021;-67
2023/08/12 05:23:19;;;;;;;31.23;17.88;;;20.10;99.90;;;;;;5057255;28;20036;-66
2023/08/12 05:25:45;;;;;;;34.85;16.73;;;20.20;99.90;;;;;;5062649;28;20029;-66
2023/08/12 05:28:11;;;;;;;36.90;19.20;;;20.20;99.90;;;;;;5065034;28;20112;-66
2023/08/12 05:30:37;;;;;;;34.15;18.25;;;20.20;99.90;;;;;;5055470;28;20025;-67
2023/08/12 05:33:03;;;;;;;33.35;18.17;;;20.20;99.90;;;;;;5038888;28;20032;-67
2023/08/12 05:35:32;;;;;;;33.88;18.67;;;20.20;99.90;;;;;;5064625;28;20017;-66
2023/08/12 05:37:58;;;;;;;33.90;17.08;;;20.20;99.90;;;;;;5062810;28;20048;-67
2023/08/12 05:40:23;;;;;;;33.88;18.02;;;20.20;99.90;;;;;;5057356;28;20024;-66
2023/08/12 05:42:49;;;;;;;30.38;17.75;;;20.20;99.90;;;;;;5068642;28;20029;-66
2023/08/12 05:45:15;;;;;;;33.28;18.35;;;20.30;99.90;;;;;;5056874;28;20036;-66
2023/08/12 05:47:40;;;;;;;30.95;16.88;;;20.20;99.90;;;;;;5063407;28;20025;-67
2023/08/12 05:50:06;;;;;;;35.85;17.88;;;20.20;99.90;;;;;;5064063;28;20040;-66
2023/08/12 05:52:33;;;;;;;31.48;17.20;;;20.20;99.90;;;;;;5056102;28;20025;-66
2023/08/12 05:54:58;;;;;;;32.75;18.05;;;20.20;99.90;;;;;;5068406;28;20024;-66
2023/08/12 05:57:24;;;;;;;33.50;19.05;;;20.20;99.90;;;;;;5056669;28;20384;-68
2023/08/12 05:59:49;;;;;;;35.15;18.42;;;20.20;99.90;;;;;;5061497;28;20345;-66
2023/08/12 06:02:15;;;;;;;34.15;17.20;;;20.20;99.90;;;;;;5064887;28;20039;-66
2023/08/12 06:04:41;;;;;;;32.53;17.20;;;20.20;99.90;;;;;;5054752;28;20021;-66
2023/08/12 06:07:06;;;;;;;33.80;17.80;;;20.30;99.90;;;;;;5067349;28;20033;-66
2023/08/12 06:09:32;;;;;;;38.05;18.75;;;20.20;99.90;;;;;;5058862;28;20039;-67
2023/08/12 06:11:57;;;;;;;30.88;18.67;;;20.10;99.90;;;;;;5060673;28;20033;-66
2023/08/12 06:14:23;;;;;;;36.63;20.42;;;20.10;99.90;;;;;;5066174;28;20491;-67
2023/08/12 06:16:48;;;;;;;36.88;19.85;;;20.10;99.90;;;;;;5054884;28;20025;-65
2023/08/12 06:19:14;;;;;;;40.88;20.60;;;20.10;99.90;;;;;;5066290;28;20033;-65
2023/08/12 06:21:39;;;;;;;37.38;20.30;;;20.00;99.90;;;;;;5060338;28;20074;-67
2023/08/12 06:24:05;;;;;;;40.13;20.25;;;20.00;99.90;;;;;;5059478;28;20035;-66
2023/08/12 06:26:30;;;;;;;39.40;21.00;;;19.90;99.90;;;;;;5068506;28;20103;-66
2023/08/12 06:28:56;;;;;;;40.55;21.75;;;19.90;99.90;;;;;;5058245;28;20116;-68
2023/08/12 06:31:22;;;;;;;42.42;22.38;;;19.90;99.90;;;;;;5068575;28;20064;-66
2023/08/12 06:33:47;;;;;;;38.95;21.15;;;20.00;99.90;;;;;;5064424;28;20036;-67
2023/08/12 06:36:13;;;;;;;42.65;21.52;;;20.00;99.90;;;;;;5061846;28;20036;-67
2023/08/12 06:38:38;;;;;;;41.55;22.40;;;20.00;99.90;;;;;;5069722;28;20569;-69
2023/08/12 06:41:04;;;;;;;41.92;23.00;;;20.00;99.90;;;;;;5058463;28;20021;-68
2023/08/12 06:43:29;;;;;;;38.78;22.17;;;20.00;99.90;;;;;;5067503;28;20029;-67
2023/08/12 06:45:55;;;;;;;42.35;23.52;;;20.00;99.90;;;;;;5065094;28;20033;-67
2023/08/12 06:48:20;;;;;;;37.72;22.27;;;20.00;99.90;;;;;;5060309;28;20044;-67
2023/08/12 06:50:52;;;;;;;41.45;23.00;;;20.00;99.90;;;;;;5071203;28;20102;-67
2023/08/12 06:53:17;;;;;;;41.45;23.20;;;20.00;99.90;;;;;;5060053;28;20032;-67
2023/08/12 06:55:46;;;;;;;41.30;23.67;;;20.00;99.90;;;;;;5065743;28;20047;-67
2023/08/12 06:58:14;;;;;;;43.95;23.48;;;20.00;99.90;;;;;;5067556;28;20028;-68
2023/08/12 07:00:39;;;;;;;44.00;24.13;;;20.10;99.90;;;;;;5057542;28;20037;-67
2023/08/12 07:03:05;;;;;;;44.05;22.92;;;20.10;99.90;;;;;;5070047;28;20104;-66
2023/08/12 07:05:30;;;;;;;32.85;13.80;;;20.10;99.90;;;;;;5061949;28;20044;-66
2023/08/12 07:07:56;;;;;;;22.40;9.85;;;20.10;99.90;;;;;;5063223;28;20029;-68
2023/08/12 07:10:21;;;;;;;20.15;8.20;;;20.00;99.90;;;;;;5068503;28;20032;-67
2023/08/12 07:12:47;;;;;;;16.40;7.10;;;19.80;99.90;;;;;;5057439;28;20031;-67
2023/08/12 07:15:13;;;;;;;17.33;6.40;;;19.60;99.90;;;;;;5069568;28;20461;-67
2023/08/12 07:17:39;;;;;;;15.32;6.75;;;19.50;99.90;;;;;;5062422;28;20059;-67
2023/08/12 07:20:05;;;;;;;18.98;7.00;;;19.50;99.90;;;;;;5062189;28;20036;-68
2023/08/12 07:22:31;;;;;;;15.10;6.90;;;19.40;99.90;;;;;;5069187;28;20074;-66
2023/08/12 07:24:59;;;;;;;17.30;6.55;;;19.40;99.90;;;;;;5057303;28;20134;-66
2023/08/12 07:27:28;;;;;;;15.10;5.47;;;19.40;99.90;;;;;;5067688;28;20532;-66
2023/08/12 07:29:54;;;;;;;12.18;5.10;;;19.30;99.90;;;;;;5064201;28;20048;-67
2023/08/12 07:32:20;;;;;;;13.20;5.10;;;19.30;99.90;;;;;;5059626;28;20083;-67
2023/08/12 07:34:46;;;;;;;12.27;3.03;;;19.20;99.90;;;;;;5070338;28;20029;-67
2023/08/12 07:37:11;;;;;;;16.27;2.85;;;19.00;99.90;;;;;;5058363;28;20042;-67
2023/08/12 07:39:37;;;;;;;8.43;2.40;;;18.70;99.90;;;;;;5065001;28;20044;-67
2023/08/12 07:42:03;;;;;;;7.60;2.08;;;18.50;99.90;;;;;;5065537;28;20097;-67
2023/08/12 07:44:29;;;;;;;9.70;2.15;;;18.30;99.90;;;;;;5056793;28;20033;-66
2023/08/12 07:46:54;;;;;;;9.98;2.35;;;18.10;99.90;;;;;;5069857;28;20040;-67
2023/08/12 07:49:21;;;;;;;12.93;2.20;;;17.90;99.90;;;;;;5059704;28;20453;-66
2023/08/12 07:51:46;;;;;;;10.48;2.40;;;17.70;99.90;;;;;;5064167;28;20029;-66
2023/08/12 07:54:12;;;;;;;12.13;2.60;;;17.60;99.90;;;;;;5066630;28;20090;-66
2023/08/12 07:56:37;;;;;;;17.85;2.60;;;17.60;99.90;;;;;;5056144;28;20047;-66
2023/08/12 07:59:03;;;;;;;7.43;2.20;;;17.60;99.90;;;;;;5056692;28;20540;-66
2023/08/12 08:01:29;;;;;;;7.88;2.65;;;17.40;99.90;;;;;;5066432;28;20033;-66
2023/08/12 08:03:54;;;;;;;12.80;2.75;;;17.40;99.90;;;;;;5063872;28;20122;-67
2023/08/12 08:06:21;;;;;;;9.85;2.42;;;17.40;99.90;;;;;;5058798;28;20021;-66
2023/08/12 08:08:47;;;;;;;11.80;2.30;;;17.30;99.90;;;;;;5070568;28;20032;-66
2023/08/12 08:11:13;;;;;;;10.93;2.33;;;17.30;99.90;;;;;;5068204;28;20524;-67
2023/08/12 08:13:38;;;;;;;12.02;2.97;;;17.30;99.90;;;;;;5061322;28;20048;-68
2023/08/12 08:16:04;;;;;;;12.98;3.08;;;17.30;99.90;;;;;;5061135;28;20074;-67
2023/08/12 08:18:29;;;;;;;13.90;3.28;;;17.40;99.90;;;;;;5068372;28;20097;-67
2023/08/12 08:20:55;;;;;;;10.68;3.05;;;17.40;99.90;;;;;;5053359;28;20032;-67
2023/08/12 08:23:21;;;;;;;11.60;3.13;;;17.50;99.90;;;;;;5056310;28;20036;-67
2023/08/12 08:25:46;;;;;;;15.70;2.92;;;17.60;99.90;;;;;;5055417;28;20025;-67
2023/08/12 08:28:12;;;;;;;13.77;3.10;;;17.70;99.90;;;;;;5065977;28;20491;-67
2023/08/12 08:30:38;;;;;;;13.32;3.10;;;17.80;99.90;;;;;;5071955;28;20388;-67
2023/08/12 08:33:04;;;;;;;11.70;2.72;;;18.00;99.90;;;;;;5056557;28;20024;-67
2023/08/12 08:35:30;;;;;;;14.68;2.63;;;18.20;99.90;;;;;;5065686;28;20051;-68
2023/08/12 08:37:55;;;;;;;11.45;2.63;;;18.30;99.90;;;;;;5054750;28;20400;-67
2023/08/12 08:40:21;;;;;;;11.20;2.95;;;18.50;99.90;;;;;;5066862;28;20052;-67
2023/08/12 08:42:49;;;;;;;11.68;2.70;;;18.60;99.90;;;;;;5055898;28;20469;-68
2023/08/12 08:45:16;;;;;;;13.90;2.83;;;18.90;99.90;;;;;;5067168;28;20024;-67
2023/08/12 08:47:42;;;;;;;14.15;2.95;;;19.20;99.90;;;;;;5060621;28;20032;-67
2023/08/12 08:50:09;;;;;;;16.13;2.90;;;19.50;99.90;;;;;;5059754;28;20100;-66
2023/08/12 08:52:37;;;;;;;16.63;2.67;;;19.90;99.90;;;;;;5068609;28;20075;-66
2023/08/12 08:55:04;;;;;;;15.88;3.38;;;20.50;99.90;;;;;;5045779;28;20485;-68
2023/08/12 08:57:30;;;;;;;12.20;3.42;;;21.20;99.90;;;;;;5059150;28;20082;-67
2023/08/12 08:59:55;;;;;;;9.55;3.30;;;21.70;99.90;;;;;;5061239;28;20091;-69
2023/08/12 09:02:22;;;;;;;15.43;3.17;;;22.00;99.90;;;;;;5066656;28;20025;-67
2023/08/12 09:04:49;;;;;;;11.35;2.80;;;22.00;99.90;;;;;;5055382;28;20477;-68
2023/08/12 09:07:15;;;;;;;12.98;3.17;;;22.00;99.90;;;;;;5067113;28;20041;-68
2023/08/12 09:09:46;;;;;;;11.50;3.03;;;22.00;99.90;;;;;;5059456;28;20150;-68
2023/08/12 09:12:15;;;;;;;12.37;2.87;;;22.20;99.90;;;;;;5055182;28;20029;-69
2023/08/12 09:14:41;;;;;;;15.73;4.05;;;22.30;99.90;;;;;;5052747;28;20054;-69
2023/08/12 09:17:07;;;;;;;17.23;4.20;;;22.80;99.90;;;;;;5049870;28;21425;-67
2023/08/12 09:19:33;;;;;;;12.93;3.33;;;22.90;99.90;;;;;;5051733;28;20040;-67
2023/08/12 09:21:58;;;;;;;11.88;3.75;;;23.30;99.90;;;;;;5054010;28;20018;-68
2023/08/12 09:24:27;;;;;;;20.08;4.10;;;24.10;99.90;;;;;;5047823;28;20024;-68
2023/08/12 09:26:53;;;;;;;11.48;2.05;;;25.20;99.90;;;;;;5048946;28;20031;-67
2023/08/12 09:29:24;;;;;;;10.70;2.13;;;26.40;99.90;;;;;;5051178;28;20029;-67
2023/08/12 09:31:50;;;;;;;8.23;2.38;;;27.50;99.90;;;;;;5052070;28;20114;-68
2023/08/12 09:34:17;;;;;;;10.77;2.58;;;28.00;99.90;;;;;;5052148;28;20437;-68
2023/08/12 09:36:43;;;;;;;9.43;2.53;;;28.00;99.90;;;;;;5052069;28;20036;-68
2023/08/12 09:39:09;;;;;;;8.48;2.75;;;27.60;99.90;;;;;;5070820;28;20105;-68
2023/08/12 09:41:35;;;;;;;7.47;2.58;;;27.40;99.90;;;;;;5071840;28;20055;-68
2023/08/12 09:44:02;;;;;;;7.68;1.90;;;27.70;99.90;;;;;;5071544;28;20111;-69
2023/08/12 09:46:28;;;;;;;8.13;2.17;;;28.40;99.90;;;;;;5071862;28;20032;-68
2023/08/12 09:48:54;;;;;;;9.20;1.98;;;28.30;99.90;;;;;;5071538;28;20149;-69
2023/08/12 09:51:23;;;;;;;9.82;2.53;;;28.10;99.90;;;;;;5072090;28;20032;-68
2023/08/12 09:53:51;;;;;;;8.85;2.08;;;27.80;99.90;;;;;;5071711;28;20425;-68
2023/08/12 09:56:19;;;;;;;9.73;2.30;;;27.40;99.90;;;;;;5069884;28;20021;-68
2023/08/12 09:58:48;;;;;;;9.45;2.25;;;27.10;99.90;;;;;;5051264;28;20033;-70
2023/08/12 10:01:16;;;;;;;8.43;2.63;;;26.60;99.90;;;;;;5049113;28;20078;-68
2023/08/12 10:03:43;;;;;;;10.15;2.60;;;26.00;99.90;;;;;;5055132;28;20476;-67
2023/08/12 10:06:09;;;;;;;9.40;2.60;;;25.60;99.90;;;;;;5055171;28;20052;-69
2023/08/12 10:08:35;;;;;;;10.27;2.17;;;25.50;99.90;;;;;;5053959;28;20033;-68
2023/08/12 10:11:06;;;;;;;8.23;2.15;;;25.90;99.90;;;;;;5055113;28;20457;-68
2023/08/12 10:13:32;;;;;;;11.60;2.25;;;26.30;99.90;;;;;;5054003;28;20025;-68
2023/08/12 10:15:58;;;;;;;11.15;1.70;;;27.60;99.90;;;;;;5054981;28;20070;-69
2023/08/12 10:18:25;;;;;;;7.10;1.92;;;28.10;99.90;;;;;;5054661;28;20025;-68
2023/08/12 10:20:52;;;;;;;7.45;2.00;;;28.60;99.90;;;;;;5054663;28;20033;-69
2023/08/12 10:23:18;;;;;;;8.82;2.22;;;28.40;99.90;;;;;;5054718;28;20032;-67
2023/08/12 10:25:44;;;;;;;9.52;2.50;;;28.10;99.90;;;;;;5054687;28;20041;-68
2023/08/12 10:28:11;;;;;;;12.10;2.58;;;27.90;99.90;;;;;;5054702;28;20103;-68
2023/08/12 10:30:39;;;;;;;13.85;2.95;;;27.50;99.90;;;;;;5054439;28;20028;-68
2023/08/12 10:33:06;;;;;;;10.27;2.60;;;27.40;99.90;;;;;;5054609;28;20366;-69
2023/08/12 10:35:42;;;;;;;13.48;2.80;;;28.30;99.90;;;;;;5054621;28;20036;-70
2023/08/12 10:38:08;;;;;;;11.80;2.10;;;29.10;99.90;;;;;;5054394;28;20104;-69
2023/08/12 10:40:34;;;;;;;6.72;2.40;;;29.30;99.90;;;;;;5052033;28;20124;-68
2023/08/12 10:43:00;;;;;;;13.02;3.05;;;29.70;99.30;;;;;;5054280;28;20025;-68
2023/08/12 10:45:46;;;;;;;10.30;2.22;;;29.70;98.90;;;;;;5054401;28;20052;-68
2023/08/12 10:48:20;;;;;;;9.98;2.33;;;29.50;99.10;;;;;;5054100;28;20056;-69
2023/08/12 10:50:49;;;;;;;8.48;2.17;;;29.90;99.10;;;;;;5053932;28;20382;-68
2023/08/12 10:53:30;;;;;;;11.93;2.55;;;29.80;98.60;;;;;;5049362;28;20472;-68
2023/08/12 10:56:01;;;;;;;13.50;2.28;;;29.40;98.30;;;;;;5050359;28;20542;-67
2023/08/12 10:58:46;;;;;;;14.00;2.97;;;29.80;98.40;;;;;;5053535;28;20098;-68
2023/08/12 11:01:19;;;;;;;10.48;2.70;;;31.00;98.20;;;;;;5054800;28;20032;-68
2023/08/12 11:03:45;;;;;;;9.27;2.45;;;32.20;96.80;;;;;;5051055;28;20048;-67
2023/08/12 11:06:11;;;;;;;11.00;2.72;;;32.70;95.70;;;;;;5053272;28;20071;-68
2023/08/12 11:08:45;;;;;;;11.18;2.60;;;32.70;95.50;;;;;;5052251;28;20328;-66
2023/08/12 11:11:20;;;;;;;11.18;2.30;;;32.50;94.80;;;;;;5052454;28;20482;-66
2023/08/12 11:13:52;;;;;;;8.18;2.22;;;31.90;95.50;;;;;;5052579;28;20112;-66
2023/08/12 11:16:17;;;;;;;;;;;32.30;95.40;;;;;;5052918;28;20021;-67
2023/08/12 11:18:43;;;;;;;16.17;3.08;;;32.90;94.80;;;;;;5052242;28;19908;-67
2023/08/12 11:21:09;;;;;;;12.27;2.40;;;33.20;93.90;;;;;;5051090;28;20036;-68
2023/08/12 11:23:36;;;;;;;11.90;2.65;;;33.10;94.10;;;;;;5053885;28;20033;-67
2023/08/12 11:26:03;;;;;;;10.60;2.50;;;33.10;93.70;;;;;;5054125;28;20033;-68
2023/08/12 11:28:28;;;;;;;11.65;2.60;;;33.20;93.60;;;;;;5054188;28;20024;-68
2023/08/12 11:30:55;;;;;;;10.80;2.25;;;32.90;93.90;;;;;;5054420;28;20029;-66
2023/08/12 11:33:21;;;;;;;9.20;2.35;;;33.30;93.80;;;;;;5053833;28;20485;-67
2023/08/12 11:35:47;;;;;;;11.63;2.63;;;33.30;93.00;;;;;;5053994;28;20041;-66
2023/08/12 11:38:14;;;;;;;10.38;2.85;;;32.70;93.60;;;;;;5053425;28;20037;-67
2023/08/12 11:40:40;;;;;;;12.05;3.13;;;32.30;93.90;;;;;;5069025;28;20040;-66
2023/08/12 11:43:06;;;;;;;10.00;2.50;;;32.10;94.00;;;;;;5073893;28;20083;-67
2023/08/12 11:45:32;;;;;;;12.45;3.00;;;32.00;93.90;;;;;;5073189;28;20032;-66
2023/08/12 11:47:57;;;;;;;9.93;2.38;;;31.90;94.10;;;;;;5073846;28;20030;-67
2023/08/12 11:50:25;;;;;;;11.98;2.33;;;32.30;94.10;;;;;;5073378;28;20589;-66
2023/08/12 11:52:52;;;;;;;11.18;2.67;;;32.80;93.60;;;;;;5072562;28;20584;-66
2023/08/12 11:55:19;;;;;;;10.00;2.83;;;32.70;94.00;;;;;;5073170;28;20035;-66
2023/08/12 11:57:45;;;;;;;6.75;2.15;;;32.70;93.90;;;;;;5073389;28;20502;-66
2023/08/12 12:00:15;;;;;;;12.23;2.55;;;33.10;93.30;;;;;;5073019;28;20041;-65
2023/08/12 12:02:46;;;;;;;11.52;2.50;;;32.90;93.50;;;;;;5073470;28;20029;-66
2023/08/12 12:05:12;;;;;;;11.93;2.78;;;32.60;93.10;;;;;;5073059;28;20028;-67
2023/08/12 12:07:38;;;;;;;13.25;2.40;;;32.40;93.70;;;;;;5072961;28;20469;-67
2023/08/12 12:10:05;;;;;;;9.10;2.38;;;32.60;93.20;;;;;;5072967;28;20158;-67
2023/08/12 12:12:35;;;;;;;11.00;2.28;;;32.80;93.10;;;;;;5072997;28;20037;-68
2023/08/12 12:15:01;;;;;;;10.80;2.60;;;33.10;93.00;;;;;;5071593;28;20376;-66
2023/08/12 12:17:26;;;;;;;7.60;2.03;;;33.10;92.60;;;;;;5073082;28;20066;-69
2023/08/12 12:19:56;;;;;;;9.38;2.47;;;32.60;93.00;;;;;;5072580;28;20047;-67
2023/08/12 12:22:35;;;;;;;11.02;2.63;;;32.60;92.90;;;;;;5073008;28;20028;-68
2023/08/12 12:25:08;;;;;;;9.80;2.40;;;32.20;93.50;;;;;;5072028;28;20016;-67
2023/08/12 12:27:34;;;;;;;12.55;2.78;;;32.10;93.80;;;;;;5071782;28;20028;-67
2023/08/12 12:30:01;;;;;;;9.10;2.50;;;32.30;93.90;;;;;;5072168;28;20452;-67
2023/08/12 12:32:26;;;;;;;11.32;2.97;;;32.10;94.20;;;;;;5058185;28;20499;-67